Time;durP1;ratioP1;P1;durP2;ratioP2;P2;SDS_P1;SDS_P2;PMS_P1;PMS_P2;Temp;Humidity;BMP_temperature;BMP_pressure;BME280_temperature;BME280_humidity;BME280_pressure;Samples;Min_cycle;Max_cycle;Signal;HPM_P1;HPM_P2
2022/06/21 00:00:08;;;;;;;10.52;3.85;;;;;;;12.39;86.31;101731.03;5035460;28;20076;-71
2022/06/21 00:02:34;;;;;;;12.85;3.60;;;;;;;12.52;86.07;101730.44;5017385;28;20505;-71
2022/06/21 00:04:59;;;;;;;7.03;3.17;;;;;;;12.44;85.10;101726.13;5033351;28;20052;-72
2022/06/21 00:07:28;;;;;;;9.82;3.60;;;;;;;12.41;85.60;101729.06;5033781;28;20477;-71
2022/06/21 00:09:53;;;;;;;10.48;3.60;;;;;;;12.41;85.78;101713.50;5035140;28;20035;-71
2022/06/21 00:12:21;;;;;;;8.32;3.13;;;;;;;12.45;85.83;101706.97;5035121;28;20101;-71
2022/06/21 00:14:47;;;;;;;10.50;3.50;;;;;;;12.49;85.95;101715.22;5033719;28;20481;-71
2022/06/21 00:17:19;;;;;;;8.73;3.65;;;;;;;12.42;85.79;101709.94;5033904;28;20036;-72
2022/06/21 00:19:46;;;;;;;13.05;3.80;;;;;;;12.38;86.11;101709.47;5035240;28;20052;-71
2022/06/21 00:22:14;;;;;;;13.43;3.80;;;;;;;12.40;86.53;101707.53;5033698;28;20048;-71
2022/06/21 00:24:39;;;;;;;13.38;3.60;;;;;;;12.44;85.89;101704.59;5033448;28;20388;-71
2022/06/21 00:27:13;;;;;;;7.13;3.60;;;;;;;12.35;86.08;101707.25;5033996;28;20029;-71
2022/06/21 00:29:38;;;;;;;8.75;3.75;;;;;;;12.31;86.60;101697.41;5033068;28;20033;-71
2022/06/21 00:32:04;;;;;;;14.07;4.25;;;;;;;12.31;85.91;101698.19;5033370;28;20021;-71
2022/06/21 00:34:30;;;;;;;12.23;4.07;;;;;;;12.30;86.54;101701.78;5033000;28;20037;-71
2022/06/21 00:36:59;;;;;;;7.20;3.53;;;;;;;12.15;86.07;101683.59;5034617;28;20104;-71
2022/06/21 00:39:24;;;;;;;10.13;3.90;;;;;;;12.21;86.29;101696.84;5033185;28;20413;-71
2022/06/21 00:41:56;;;;;;;11.57;4.03;;;;;;;12.09;87.29;101694.66;5034129;28;20021;-71
2022/06/21 00:44:43;;;;;;;9.52;3.60;;;;;;;12.07;87.25;101696.63;5033038;28;20120;-71
2022/06/21 00:47:27;;;;;;;8.88;3.70;;;;;;;12.13;86.75;101697.72;5033280;28;20028;-71
2022/06/21 00:50:02;;;;;;;12.93;4.15;;;;;;;12.11;86.83;101694.47;5033091;28;20026;-71
2022/06/21 00:52:37;;;;;;;9.45;3.97;;;;;;;12.11;87.14;101686.72;5033805;28;20342;-72
2022/06/21 00:55:16;;;;;;;9.13;3.70;;;;;;;12.23;86.52;101685.34;5034603;28;20060;-72
2022/06/21 00:57:53;;;;;;;12.15;3.97;;;;;;;12.14;86.02;101694.13;5034500;28;20465;-72
2022/06/21 01:00:30;;;;;;;10.55;3.65;;;;;;;12.11;86.04;101692.72;5033205;28;20025;-73
2022/06/21 01:02:57;;;;;;;7.90;3.45;;;;;;;12.02;86.09;101687.75;5034082;28;20022;-72
2022/06/21 01:05:26;;;;;;;6.80;3.55;;;;;;;11.94;86.15;101691.25;5032987;28;20088;-72
2022/06/21 01:07:54;;;;;;;9.48;3.65;;;;;;;11.95;86.21;101685.06;5032883;28;20017;-72
2022/06/21 01:10:19;;;;;;;11.43;4.03;;;;;;;12.03;85.47;101679.81;5034133;28;20025;-72
2022/06/21 01:12:53;;;;;;;9.68;3.70;;;;;;;11.95;85.43;101678.09;5032885;28;20175;-72
2022/06/21 01:15:30;;;;;;;8.25;3.97;;;;;;;11.88;84.99;101677.19;5034064;28;20036;-72
2022/06/21 01:18:00;;;;;;;9.65;3.95;;;;;;;11.82;85.60;101664.09;5032610;28;20120;-72
2022/06/21 01:20:28;;;;;;;10.98;3.92;;;;;;;11.95;85.57;101672.91;5034042;28;20457;-72
2022/06/21 01:23:21;;;;;;;13.93;3.85;;;;;;;11.92;84.99;101665.50;5033933;28;20033;-73
2022/06/21 01:25:59;;;;;;;9.17;3.90;;;;;;;11.85;85.34;101663.72;5034149;28;20036;-72
2022/06/21 01:28:25;;;;;;;10.93;3.75;;;;;;;11.79;84.94;101659.25;5032626;28;20367;-72
2022/06/21 01:30:56;;;;;;;8.48;3.97;;;;;;;11.73;85.39;101656.38;5034035;28;20068;-72
2022/06/21 01:33:31;;;;;;;11.65;4.13;;;;;;;11.60;86.16;101657.94;5034051;28;20021;-72
2022/06/21 01:36:01;;;;;;;14.10;3.80;;;;;;;11.56;86.74;101657.47;5033721;28;20035;-72
2022/06/21 01:38:34;;;;;;;10.13;4.13;;;;;;;11.48;86.59;101647.97;5033594;28;20029;-72
2022/06/21 01:41:08;;;;;;;11.25;4.10;;;;;;;11.53;86.37;101647.44;5033676;28;20532;-72
2022/06/21 01:43:34;;;;;;;8.38;3.80;;;;;;;11.42;86.13;101646.09;5033683;28;20031;-72
2022/06/21 01:46:05;;;;;;;8.93;3.97;;;;;;;11.38;86.69;101655.16;5032491;28;20132;-72
2022/06/21 01:48:35;;;;;;;12.10;4.35;;;;;;;11.43;87.41;101662.41;5032373;28;20030;-72
2022/06/21 01:51:06;;;;;;;9.35;4.40;;;;;;;11.41;87.34;101661.75;5033524;28;20088;-72
2022/06/21 01:53:32;;;;;;;11.90;3.85;;;;;;;11.42;87.50;101650.44;5033661;28;20022;-72
2022/06/21 01:56:02;;;;;;;9.43;4.13;;;;;;;11.34;87.62;101658.25;5032495;28;20022;-72
2022/06/21 01:58:31;;;;;;;9.90;4.10;;;;;;;11.40;87.28;101657.56;5033457;28;20022;-72
2022/06/21 02:01:00;;;;;;;9.02;4.05;;;;;;;11.40;87.40;101647.22;5032166;28;20025;-73
2022/06/21 02:03:31;;;;;;;9.70;4.03;;;;;;;11.47;87.15;101637.78;5032329;28;20349;-72
2022/06/21 02:06:00;;;;;;;11.23;4.28;;;;;;;11.46;86.74;101638.78;5033180;28;20100;-72
2022/06/21 02:08:33;;;;;;;8.73;3.97;;;;;;;11.39;87.26;101643.00;5033771;28;20034;-72
2022/06/21 02:11:03;;;;;;;10.07;4.40;;;;;;;11.39;87.59;101633.44;5033181;28;20094;-72
2022/06/21 02:13:43;;;;;;;8.90;4.20;;;;;;;11.37;87.05;101648.38;5033267;28;20060;-72
2022/06/21 02:16:15;;;;;;;12.13;4.15;;;;;;;11.37;87.27;101650.97;5032477;28;20036;-72
2022/06/21 02:18:47;;;;;;;6.80;3.75;;;;;;;11.47;87.45;101648.13;5033618;28;20026;-73
2022/06/21 02:21:21;;;;;;;11.40;4.40;;;;;;;11.48;86.87;101657.53;5031936;28;20029;-72
2022/06/21 02:23:52;;;;;;;8.68;3.90;;;;;;;11.50;87.37;101655.56;5033313;28;20052;-72
2022/06/21 02:26:19;;;;;;;8.82;3.97;;;;;;;11.42;87.17;101651.25;5033238;28;20036;-72
2022/06/21 02:28:46;;;;;;;11.68;4.30;;;;;;;11.51;86.99;101654.59;5033337;28;20037;-72
2022/06/21 02:31:11;;;;;;;8.38;3.97;;;;;;;11.47;87.60;101659.28;5033444;28;20018;-72
2022/06/21 02:33:38;;;;;;;10.45;4.00;;;;;;;11.47;87.73;101659.28;5031809;28;20468;-72
2022/06/21 02:36:16;;;;;;;12.38;4.18;;;;;;;11.41;87.11;101666.94;5033255;28;20377;-72
2022/06/21 02:38:56;;;;;;;8.07;3.72;;;;;;;11.44;86.32;101674.38;5031804;28;20133;-72
2022/06/21 02:41:24;;;;;;;7.43;3.60;;;;;;;11.43;85.93;101676.16;5032020;28;20029;-72
2022/06/21 02:43:55;;;;;;;11.77;4.10;;;;;;;11.43;85.81;101673.56;5033041;28;20036;-72
2022/06/21 02:46:27;;;;;;;7.32;3.72;;;;;;;11.42;85.45;101668.53;5032880;28;20026;-72
2022/06/21 02:48:59;;;;;;;9.75;3.97;;;;;;;11.52;86.02;101666.56;5033320;28;20074;-72
2022/06/21 02:51:34;;;;;;;9.60;4.13;;;;;;;11.61;85.27;101667.31;5034993;28;20064;-72
2022/06/21 02:54:15;;;;;;;11.30;4.30;;;;;;;11.37;86.12;101663.09;5035349;28;20448;-72
2022/06/21 02:56:51;;;;;;;12.13;4.15;;;;;;;11.55;86.28;101655.84;5036687;28;20029;-72
2022/06/21 02:59:17;;;;;;;10.07;4.13;;;;;;;11.51;86.64;101642.47;5035423;28;20120;-72
2022/06/21 03:01:48;;;;;;;9.98;3.83;;;;;;;11.45;86.81;101637.13;5036488;28;20112;-72
2022/06/21 03:04:32;;;;;;;9.52;3.90;;;;;;;11.39;86.20;101628.28;5036333;28;20124;-72
2022/06/21 03:06:58;;;;;;;9.95;4.13;;;;;;;11.27;85.42;101638.22;5036562;28;20385;-72
2022/06/21 03:09:24;;;;;;;12.52;4.05;;;;;;;11.09;86.31;101634.28;5036407;28;20037;-71
2022/06/21 03:11:53;;;;;;;9.32;4.05;;;;;;;10.87;86.43;101633.25;5036324;28;20071;-72
2022/06/21 03:14:22;;;;;;;10.40;3.92;;;;;;;10.84;87.15;101632.59;5035308;28;20022;-71
2022/06/21 03:16:47;;;;;;;8.80;3.90;;;;;;;10.92;87.29;101625.78;5035016;28;20021;-71
2022/06/21 03:19:28;;;;;;;8.18;4.28;;;;;;;10.88;86.83;101627.91;5034906;28;20350;-72
2022/06/21 03:21:55;;;;;;;9.77;3.60;;;;;;;10.92;85.95;101625.78;5034947;28;20052;-71
2022/06/21 03:24:23;;;;;;;7.38;3.53;;;;;;;10.93;85.23;101625.59;5034771;28;20024;-72
2022/06/21 03:26:59;;;;;;;10.60;3.65;;;;;;;10.82;85.42;101615.66;5035988;28;20057;-72
2022/06/21 03:29:24;;;;;;;10.02;3.90;;;;;;;10.81;85.60;101622.59;5034654;28;20033;-72
2022/06/21 03:31:51;;;;;;;12.35;3.58;;;;;;;10.93;84.78;101617.84;5034659;28;20024;-72
2022/06/21 03:34:20;;;;;;;7.30;3.30;;;;;;;10.93;84.68;101624.81;5034601;28;20033;-72
2022/06/21 03:36:47;;;;;;;6.78;3.50;;;;;;;10.86;84.79;101616.94;5034478;28;20112;-71
2022/06/21 03:39:16;;;;;;;12.55;4.45;;;;;;;10.84;84.61;101621.44;5034411;28;20029;-72
2022/06/21 03:41:43;;;;;;;8.73;3.70;;;;;;;10.99;84.50;101621.53;5035538;28;20026;-72
2022/06/21 03:44:24;;;;;;;6.68;3.38;;;;;;;11.03;83.95;101615.06;5035773;28;20057;-71
2022/06/21 03:47:02;;;;;;;8.13;3.10;;;;;;;10.95;83.86;101615.09;5035697;28;20441;-71
2022/06/21 03:49:52;;;;;;;8.05;3.83;;;;;;;10.94;84.29;101616.09;5035733;28;20419;-71
2022/06/21 03:52:42;;;;;;;7.38;3.35;;;;;;;10.85;83.35;101615.31;5034283;28;20025;-72
2022/06/21 03:55:19;;;;;;;11.23;3.67;;;;;;;10.89;83.27;101621.75;5034432;28;20026;-72
2022/06/21 03:57:57;;;;;;;8.65;3.72;;;;;;;10.93;83.12;101620.44;5034245;28;20040;-71
2022/06/21 04:00:26;;;;;;;10.82;3.40;;;;;;;10.84;83.14;101619.66;5035453;28;20373;-71
2022/06/21 04:03:09;;;;;;;6.18;3.35;;;;;;;11.01;82.87;101620.41;5033497;28;20021;-71
2022/06/21 04:05:48;;;;;;;7.55;3.25;;;;;;;11.00;82.12;101618.81;5035378;28;20053;-72
2022/06/21 04:08:22;;;;;;;9.90;3.88;;;;;;;10.93;82.60;101604.13;5035409;28;20029;-71
2022/06/21 04:10:51;;;;;;;8.60;4.13;;;;;;;10.84;83.52;101596.41;5035221;28;20025;-71
2022/06/21 04:13:43;;;;;;;8.23;3.88;;;;;;;11.00;83.57;101611.03;5035351;28;20334;-71
2022/06/21 04:16:13;;;;;;;8.27;3.53;;;;;;;11.23;82.55;101613.66;5034003;28;20029;-71
2022/06/21 04:18:59;;;;;;;7.95;3.65;;;;;;;11.26;81.58;101608.16;5035350;28;20032;-71
2022/06/21 04:21:37;;;;;;;8.05;3.60;;;;;;;11.21;82.36;101594.91;5033696;28;20209;-71
2022/06/21 04:24:27;;;;;;;7.97;3.88;;;;;;;11.10;83.38;101590.13;5033776;28;20473;-71
2022/06/21 04:27:00;;;;;;;7.75;3.92;;;;;;;11.13;83.39;101599.34;5033715;28;20025;-71
2022/06/21 04:29:32;;;;;;;8.77;4.07;;;;;;;11.27;83.25;101604.56;5033769;28;20037;-72
2022/06/21 04:32:06;;;;;;;11.32;4.22;;;;;;;11.40;82.85;101613.59;5034998;28;20017;-72
2022/06/21 04:34:41;;;;;;;6.05;4.05;;;;;;;11.61;81.93;101616.34;5034832;28;20026;-72
2022/06/21 04:37:28;;;;;;;8.57;4.10;;;;;;;11.64;82.21;101617.78;5034995;28;20526;-72
2022/06/21 04:40:03;;;;;;;7.90;4.13;;;;;;;11.62;82.69;101611.94;5034752;28;20087;-71
2022/06/21 04:42:36;;;;;;;12.02;4.20;;;;;;;11.66;83.03;101615.81;5034715;28;20078;-72
2022/06/21 04:45:20;;;;;;;15.15;4.50;;;;;;;11.70;83.43;101611.91;5034575;28;20029;-72
2022/06/21 04:48:11;;;;;;;6.40;4.00;;;;;;;11.82;83.72;101604.53;5034662;28;20025;-72
2022/06/21 04:50:48;;;;;;;8.85;4.00;;;;;;;11.95;83.27;101597.78;5033109;28;20028;-71
2022/06/21 04:53:44;;;;;;;7.50;4.15;;;;;;;12.10;82.83;101612.56;5034342;28;20044;-72
2022/06/21 04:56:34;;;;;;;10.68;4.07;;;;;;;12.23;82.68;101601.56;5024949;28;20108;-71
2022/06/21 04:59:01;;;;;;;7.13;3.80;;;;;;;12.31;82.07;101593.72;5034388;28;20473;-72
2022/06/21 05:01:29;;;;;;;15.05;4.15;;;;;;;12.35;83.06;101590.59;5033097;28;20032;-71
2022/06/21 05:03:58;;;;;;;11.90;4.07;;;;;;;12.36;82.22;101599.97;5033960;28;20036;-71
2022/06/21 05:06:24;;;;;;;12.32;4.05;;;;;;;12.37;82.17;101587.81;5032792;28;20115;-71
2022/06/21 05:08:50;;;;;;;10.60;4.00;;;;;;;12.35;82.75;101580.25;5032702;28;20076;-72
2022/06/21 05:11:16;;;;;;;13.75;4.45;;;;;;;12.57;81.88;101583.72;5032775;28;20029;-71
2022/06/21 05:13:49;;;;;;;13.43;4.07;;;;;;;13.88;77.86;101587.03;5034175;28;20067;-72
2022/06/21 05:16:18;;;;;;;8.40;3.55;;;;;;;15.61;69.80;101585.09;5033972;28;20029;-72
2022/06/21 05:18:50;;;;;;;9.70;3.97;;;;;;;13.71;76.96;101578.72;5034468;28;20504;-71
2022/06/21 05:21:25;;;;;;;11.50;4.30;;;;;;;13.10;80.40;101568.75;5033249;28;20025;-71
2022/06/21 05:23:51;;;;;;;9.73;4.00;;;;;;;12.99;81.87;101552.88;5033865;28;20061;-72
2022/06/21 05:26:27;;;;;;;12.80;4.20;;;;;;;13.14;82.40;101550.22;5032234;28;20187;-72
2022/06/21 05:29:04;;;;;;;11.35;3.50;;;;;;;15.76;74.39;101562.28;5032979;28;20029;-71
2022/06/21 05:31:37;;;;;;;8.70;3.50;;;;;;;20.15;58.07;101568.47;5033046;28;20018;-72
2022/06/21 05:34:26;;;;;;;9.23;3.60;;;;;;;24.61;44.08;101567.22;5016578;28;20151;-73
2022/06/21 05:37:00;;;;;;;8.60;3.20;;;;;;;25.86;41.41;101568.47;5032730;28;20029;-73
2022/06/21 05:39:31;;;;;;;6.50;2.83;;;;;;;26.49;38.67;101565.25;5032810;28;20028;-73
2022/06/21 05:42:02;;;;;;;6.70;2.60;;;;;;;28.07;35.54;101565.66;5032430;28;20022;-73
2022/06/21 05:44:31;;;;;;;7.90;2.97;;;;;;;26.85;37.72;101554.44;5032593;28;20037;-73
2022/06/21 05:47:14;;;;;;;6.18;2.40;;;;;;;28.38;34.80;101553.84;5033008;28;20480;-71
2022/06/21 05:49:41;;;;;;;7.30;2.50;;;;;;;29.32;33.85;101560.84;5032990;28;20057;-70
2022/06/21 05:52:16;;;;;;;8.27;2.50;;;;;;;29.25;32.66;101561.25;5032941;28;20167;-69
2022/06/21 05:55:15;;;;;;;8.68;2.67;;;;;;;29.09;32.31;101551.94;5033023;28;20022;-69
2022/06/21 05:57:47;;;;;;;8.63;2.63;;;;;;;28.04;34.71;101570.75;5033998;28;20022;-69
2022/06/21 06:00:23;;;;;;;7.97;2.58;;;;;;;26.87;36.35;101575.34;5032439;28;20082;-72
2022/06/21 06:02:53;;;;;;;9.60;3.10;;;;;;;27.66;35.45;101568.00;5034770;28;20396;-80
2022/06/21 06:05:30;;;;;;;8.38;2.55;;;;;;;28.51;33.82;101577.88;5033918;28;20115;-79
2022/06/21 06:08:01;;;;;;;6.20;2.90;;;;;;;27.81;36.05;101581.13;5033754;28;20045;-68
2022/06/21 06:10:30;;;;;;;10.77;3.22;;;;;;;27.00;36.71;101572.06;5032641;28;20064;-79
2022/06/21 06:13:08;;;;;;;7.13;2.42;;;;;;;27.79;35.22;101575.31;5032997;28;20060;-80
2022/06/21 06:15:40;;;;;;;8.98;3.00;;;;;;;27.41;35.83;101577.03;5034369;28;20022;-78
2022/06/21 06:18:16;;;;;;;7.03;2.42;;;;;;;28.06;35.00;101576.59;5032030;28;20033;-79
2022/06/21 06:21:03;;;;;;;7.22;2.50;;;;;;;28.74;34.68;101578.03;5031232;28;20032;-79
2022/06/21 06:23:33;;;;;;;7.70;2.50;;;;;;;26.99;36.51;101567.84;5032510;28;20026;-79
2022/06/21 06:26:01;;;;;;;6.82;2.30;;;;;;;27.49;35.72;101575.63;5034086;28;20104;-79
2022/06/21 06:28:39;;;;;;;7.88;2.80;;;;;;;28.11;34.46;101576.53;5036580;28;20025;-79
2022/06/21 06:31:25;;;;;;;7.13;2.38;;;;;;;27.28;36.16;101564.44;5035301;28;20397;-79
2022/06/21 06:34:03;;;;;;;8.63;2.75;;;;;;;26.86;37.15;101571.91;5034595;28;20025;-78
2022/06/21 06:36:36;;;;;;;6.80;2.60;;;;;;;24.59;41.08;101573.84;5035494;28;20036;-79
2022/06/21 06:39:12;;;;;;;8.95;2.67;;;;;;;23.29;44.16;101570.03;5035226;28;20029;-78
2022/06/21 06:41:49;;;;;;;8.15;2.60;;;;;;;21.54;48.04;101580.41;5035917;28;20060;-78
2022/06/21 06:44:17;;;;;;;9.60;2.60;;;;;;;21.83;48.19;101585.56;5034240;28;20520;-78
2022/06/21 06:46:48;;;;;;;5.57;2.20;;;;;;;21.57;49.67;101590.44;5036347;28;20032;-78
2022/06/21 06:49:22;;;;;;;7.90;2.70;;;;;;;21.35;49.85;101589.56;5035921;28;20497;-79
2022/06/21 06:52:13;;;;;;;9.68;2.47;;;;;;;21.69;48.88;101595.63;5035794;28;20104;-80
2022/06/21 06:54:49;;;;;;;11.25;2.70;;;;;;;21.10;50.54;101605.72;5036284;28;20025;-79
2022/06/21 06:57:35;;;;;;;8.23;2.30;;;;;;;21.22;49.48;101605.66;5037431;28;20033;-79
2022/06/21 07:00:10;;;;;;;6.68;2.30;;;;;;;21.23;49.84;101613.28;5035722;28;20093;-80
2022/06/21 07:02:42;;;;;;;8.82;2.70;;;;;;;21.15;49.86;101627.63;5034821;28;20033;-78
2022/06/21 07:05:36;;;;;;;7.75;2.53;;;;;;;20.71;51.27;101632.63;5035508;28;20103;-79
2022/06/21 07:08:23;;;;;;;7.50;2.50;;;;;;;20.00;53.48;101631.91;5035560;28;20111;-79
2022/06/21 07:10:52;;;;;;;5.65;1.90;;;;;;;19.63;52.64;101633.94;5036135;28;20083;-79
2022/06/21 07:13:18;;;;;;;7.65;2.30;;;;;;;20.31;50.85;101637.00;5036078;28;20032;-79
2022/06/21 07:15:47;;;;;;;4.85;2.00;;;;;;;21.21;50.05;101630.34;5036035;28;20026;-79
2022/06/21 07:18:16;;;;;;;6.70;1.90;;;;;;;21.58;50.50;101625.47;5036274;28;20029;-79
2022/06/21 07:20:45;;;;;;;5.28;1.80;;;;;;;21.51;47.74;101627.44;5036553;28;20488;-78
2022/06/21 07:23:21;;;;;;;10.07;2.10;;;;;;;21.03;49.73;101639.22;5036433;28;20028;-78
2022/06/21 07:25:51;;;;;;;6.13;2.03;;;;;;;21.60;48.51;101628.63;5036617;28;20048;-79
2022/06/21 07:28:41;;;;;;;5.78;1.52;;;;;;;22.01;45.91;101630.03;5035917;28;20053;-78
2022/06/21 07:31:24;;;;;;;5.50;1.63;;;;;;;21.73;45.66;101622.25;5034097;28;20073;-78
2022/06/21 07:33:58;;;;;;;6.55;1.92;;;;;;;21.23;47.26;101623.78;5034851;28;20025;-78
2022/06/21 07:36:58;;;;;;;7.15;2.00;;;;;;;21.50;47.56;101629.28;5031726;28;20023;-79
2022/06/21 07:39:40;;;;;;;7.60;2.00;;;;;;;21.09;49.29;101628.56;5012618;28;20037;-79
2022/06/21 07:42:14;;;;;;;6.57;2.25;;;;;;;21.58;47.90;101631.50;5033929;28;20025;-77
2022/06/21 07:45:09;;;;;;;9.02;2.28;;;;;;;22.09;47.36;101626.16;5033759;28;20507;-77
2022/06/21 07:47:42;;;;;;;8.38;2.47;;;;;;;21.34;48.06;101635.28;5035388;28;20057;-76
2022/06/21 07:50:18;;;;;;;5.72;2.13;;;;;;;21.23;47.63;101623.00;5034477;28;20435;-77
2022/06/21 07:52:54;;;;;;;7.75;1.70;;;;;;;21.01;47.57;101620.28;5035354;28;20053;-73
2022/06/21 07:55:27;;;;;;;4.63;1.70;;;;;;;21.21;47.42;101625.88;5033874;28;20021;-73
2022/06/21 07:58:00;;;;;;;4.38;1.60;;;;;;;21.07;46.74;101620.13;5035324;28;20108;-74
2022/06/21 08:06:41;;;;;;;4.10;1.50;;;;;;;21.43;48.12;101617.31;5033573;28;20037;-73
2022/06/21 08:07:02;;;;;;;5.57;1.88;;;;;;;22.79;44.81;101619.38;5034866;28;20420;-74
2022/06/21 08:09:21;;;;;;;7.65;1.90;;;;;;;23.23;43.52;101615.84;5029468;28;20034;-74
2022/06/21 08:11:48;;;;;;;3.42;1.50;;;;;;;22.71;45.01;101611.91;5034454;28;20108;-74
2022/06/21 08:14:15;;;;;;;7.55;2.20;;;;;;;22.02;45.80;101617.66;5034328;28;20025;-74
2022/06/21 08:16:50;;;;;;;5.13;1.95;;;;;;;22.97;44.40;101613.78;5034118;28;20060;-74
2022/06/21 08:19:36;;;;;;;6.43;1.83;;;;;;;22.61;44.87;101614.44;5034495;28;20037;-72
2022/06/21 08:22:07;;;;;;;4.57;1.70;;;;;;;22.37;46.30;101616.53;5033123;28;20029;-74
2022/06/21 08:24:42;;;;;;;4.97;1.60;;;;;;;22.84;44.69;101618.63;5032560;28;20029;-74
2022/06/21 08:27:17;;;;;;;6.60;1.70;;;;;;;22.57;43.98;101605.44;5031982;28;20120;-74
2022/06/21 08:29:50;;;;;;;7.13;1.50;;;;;;;23.47;43.30;101601.25;5034389;28;20101;-74
2022/06/21 08:32:34;;;;;;;5.65;1.60;;;;;;;23.47;42.45;101603.09;5033907;28;20025;-74
2022/06/21 08:35:11;;;;;;;7.40;1.73;;;;;;;24.12;42.35;101595.84;5032981;28;20034;-74
2022/06/21 08:38:01;;;;;;;6.68;1.90;;;;;;;23.97;41.46;101593.94;5032819;28;20036;-76
2022/06/21 08:40:32;;;;;;;7.13;1.83;;;;;;;23.87;41.40;101595.47;5032929;28;20086;-75
2022/06/21 08:43:38;;;;;;;7.10;1.70;;;;;;;24.19;40.02;101591.91;5034025;28;20506;-74
2022/06/21 08:46:24;;;;;;;4.25;1.40;;;;;;;23.57;41.73;101582.09;5034065;28;20025;-75
2022/06/21 08:48:59;;;;;;;5.25;1.65;;;;;;;24.09;42.37;101586.59;5033454;28;20055;-74
2022/06/21 08:51:56;;;;;;;6.38;1.95;;;;;;;24.48;40.26;101573.81;5033879;28;20091;-75
2022/06/21 08:54:43;;;;;;;6.88;2.00;;;;;;;24.26;40.55;101575.84;5021473;28;20448;-75
2022/06/21 08:57:21;;;;;;;5.47;1.98;;;;;;;23.97;40.73;101570.19;5032779;28;20500;-74
2022/06/21 09:00:04;;;;;;;10.23;2.00;;;;;;;23.28;42.33;101566.59;5034100;28;20422;-74
2022/06/21 09:03:08;;;;;;;4.55;1.70;;;;;;;23.55;41.72;101570.97;5033422;28;20056;-73
2022/06/21 09:05:39;;;;;;;5.43;1.75;;;;;;;23.83;41.95;101568.00;5032717;28;20072;-74
2022/06/21 09:08:14;;;;;;;5.05;1.80;;;;;;;24.35;40.13;101550.50;5032945;28;20370;-73
2022/06/21 09:11:04;;;;;;;4.43;1.88;;;;;;;24.55;40.66;101552.44;5032202;28;20024;-73
2022/06/21 09:13:50;;;;;;;5.68;1.75;;;;;;;24.80;39.10;101559.59;5032281;28;20461;-73
2022/06/21 09:16:41;;;;;;;5.88;1.60;;;;;;;24.26;41.10;101544.94;5032383;28;20072;-74
2022/06/21 09:19:13;;;;;;;4.22;1.60;;;;;;;23.62;40.40;101548.63;5032165;28;20404;-74
2022/06/21 09:21:49;;;;;;;7.43;1.27;;;;;;;23.52;40.70;101539.84;5033361;28;20385;-74
2022/06/21 09:24:31;;;;;;;4.25;1.50;;;;;;;24.59;38.09;101545.56;5032087;28;20083;-74
2022/06/21 09:27:40;;;;;;;5.97;1.67;;;;;;;25.24;35.45;101540.56;5033292;28;20105;-74
2022/06/21 09:30:31;;;;;;;7.03;1.60;;;;;;;24.58;36.82;101545.84;4995204;28;20119;-74
2022/06/21 09:33:08;;;;;;;5.00;1.50;;;;;;;23.82;36.96;101537.41;5011336;28;20022;-74
2022/06/21 09:35:54;;;;;;;6.45;1.40;;;;;;;24.52;38.50;101543.19;5028011;28;20064;-74
2022/06/21 09:38:26;;;;;;;6.88;1.40;;;;;;;25.05;37.55;101547.44;5033322;28;20021;-74
2022/06/21 09:41:12;;;;;;;3.10;1.40;;;;;;;25.56;35.38;101545.53;5033199;28;20021;-74
2022/06/21 09:44:11;;;;;;;7.50;1.70;;;;;;;24.16;37.35;101550.19;5032990;28;20294;-74
2022/06/21 09:46:55;;;;;;;7.78;1.63;;;;;;;24.57;37.88;101539.75;5031765;28;20095;-74
2022/06/21 09:49:33;;;;;;;4.65;1.73;;;;;;;24.38;37.49;101543.91;5031787;28;20120;-74
2022/06/21 09:52:12;;;;;;;3.97;1.40;;;;;;;25.30;36.53;101539.50;5033090;28;20103;-74
2022/06/21 09:54:41;;;;;;;4.82;1.60;;;;;;;24.88;36.84;101537.91;5031770;28;20022;-74
2022/06/21 09:57:29;;;;;;;3.33;1.45;;;;;;;25.20;35.97;101536.84;5031605;28;20036;-73
2022/06/21 10:00:07;;;;;;;3.80;1.50;;;;;;;24.39;38.56;101527.78;5030947;28;20021;-74
2022/06/21 10:02:54;;;;;;;3.22;1.52;;;;;;;25.40;37.46;101528.88;5031478;28;20045;-73
2022/06/21 10:05:37;;;;;;;8.88;1.70;;;;;;;24.50;36.69;101512.78;5031463;28;20145;-74
2022/06/21 10:08:17;;;;;;;5.25;1.70;;;;;;;24.48;38.23;101513.03;5032774;28;20064;-73
2022/06/21 10:11:09;;;;;;;4.45;1.75;;;;;;;24.77;37.74;101504.59;5032740;28;20090;-73
2022/06/21 10:14:17;;;;;;;5.07;1.30;;;;;;;24.55;37.66;101502.22;5032785;28;20025;-73
2022/06/21 10:17:00;;;;;;;4.50;1.63;;;;;;;25.56;37.32;101508.47;5029607;28;20504;-73
2022/06/21 10:19:25;;;;;;;;;;;;;;;23.68;38.96;101517.78;5031741;28;20030;-73
2022/06/21 10:22:28;;;;;;;7.73;1.90;;;;;;;23.54;40.21;101519.28;5031401;28;19929;-73
2022/06/21 10:25:10;;;;;;;4.25;1.70;;;;;;;23.87;39.68;101504.94;5031607;28;20033;-73
2022/06/21 10:28:30;;;;;;;5.30;1.65;;;;;;;24.39;39.33;101508.50;5030094;28;20056;-73
2022/06/21 10:31:09;;;;;;;6.68;1.70;;;;;;;25.70;38.05;101492.81;5010799;28;20113;-73
2022/06/21 10:33:52;;;;;;;5.03;1.88;;;;;;;25.55;38.11;101488.38;5026505;28;20033;-73
2022/06/21 10:36:46;;;;;;;8.80;2.10;;;;;;;24.48;39.23;101477.91;5032648;28;20025;-73
2022/06/21 10:39:29;;;;;;;6.03;1.52;;;;;;;24.63;38.96;101482.41;5032563;28;20100;-73
2022/06/21 10:45:50;;;;;;;7.15;2.35;;;;;;;24.40;38.94;101481.03;5032842;28;20036;-73
2022/06/21 10:48:41;;;;;;;5.03;1.92;;;;;;;24.25;40.43;101474.66;5031090;28;20036;-74
2022/06/21 10:51:30;;;;;;;6.82;2.80;;;;;;;24.40;39.00;101468.63;5031055;28;20025;-73
2022/06/21 10:54:20;;;;;;;4.32;1.80;;;;;;;25.13;37.98;101480.78;5031048;28;20081;-73
2022/06/21 10:57:10;;;;;;;6.57;1.73;;;;;;;25.39;37.99;101479.69;5031137;28;20052;-73
2022/06/21 11:03:00;;;;;;;7.32;1.83;;;;;;;26.70;34.66;101470.53;5032351;28;20125;-73
2022/06/21 11:05:58;;;;;;;3.80;1.75;;;;;;;26.50;34.14;101476.78;5030554;28;20095;-73
2022/06/21 11:09:12;;;;;;;4.57;1.55;;;;;;;26.38;34.20;101476.28;5031025;28;20029;-74
2022/06/21 11:11:56;;;;;;;3.28;1.70;;;;;;;25.68;34.64;101481.69;5012465;28;20558;-74
2022/06/21 11:14:30;;;;;;;5.68;1.88;;;;;;;25.12;35.29;101477.34;4997703;28;20030;-74
2022/06/21 11:17:26;;;;;;;5.50;1.83;;;;;;;26.14;35.69;101478.84;5028790;28;20041;-74
2022/06/21 11:20:16;;;;;;;7.25;1.52;;;;;;;26.61;33.76;101476.69;5034521;28;20116;-74
2022/06/21 11:22:46;;;;;;;4.28;1.63;;;;;;;26.64;33.57;101478.78;5035493;28;20053;-74
2022/06/21 11:25:24;;;;;;;3.65;1.40;;;;;;;26.72;32.81;101478.97;5034320;28;20493;-74
2022/06/21 11:28:09;;;;;;;3.53;1.50;;;;;;;26.06;34.00;101476.78;5034443;28;20092;-73
2022/06/21 11:30:47;;;;;;;5.97;1.63;;;;;;;25.57;34.95;101472.22;5035458;28;20033;-74
2022/06/21 11:33:43;;;;;;;5.68;1.50;;;;;;;25.51;34.68;101470.66;5034069;28;20139;-74
2022/06/21 11:36:22;;;;;;;5.88;1.80;;;;;;;24.32;36.44;101469.94;5035353;28;20025;-75
2022/06/21 11:39:11;;;;;;;5.85;1.80;;;;;;;23.63;37.31;101470.25;5033898;28;20429;-74
2022/06/21 11:42:22;;;;;;;7.55;1.70;;;;;;;23.34;37.88;101473.28;5033742;28;20025;-74
2022/06/21 11:44:56;;;;;;;9.13;1.77;;;;;;;;;;5013954;28;20026;-71
2022/06/21 11:47:49;;;;;;;5.82;1.90;;;;;;;24.39;35.42;101479.47;5030883;28;20040;-73
2022/06/21 11:50:23;;;;;;;5.30;1.98;;;;;;;25.35;34.49;101486.59;5033753;28;20029;-74
2022/06/21 11:53:17;;;;;;;8.02;1.70;;;;;;;25.21;34.68;101478.41;5035104;28;20067;-72
2022/06/21 11:55:55;;;;;;;3.33;1.40;;;;;;;25.78;32.70;101484.31;5035693;28;20502;-75
2022/06/21 11:58:44;;;;;;;2.53;1.20;;;;;;;25.94;33.97;101473.66;5034455;28;20029;-75
2022/06/21 12:01:34;;;;;;;4.30;1.05;;;;;;;25.63;33.42;101471.91;5033226;28;20103;-74
2022/06/21 12:04:14;;;;;;;5.20;1.60;;;;;;;25.06;33.44;101470.50;5035275;28;20025;-74
2022/06/21 12:07:04;;;;;;;3.95;1.50;;;;;;;23.96;35.87;101476.19;5034188;28;20505;-74
2022/06/21 12:09:42;;;;;;;7.90;1.60;;;;;;;24.58;34.78;101463.94;5033387;28;20116;-74
2022/06/21 12:12:19;;;;;;;4.50;1.48;;;;;;;24.54;34.86;101463.63;5033337;28;20018;-75
2022/06/21 12:15:26;;;;;;;3.83;1.30;;;;;;;23.25;36.03;101458.19;5033400;28;20516;-74
2022/06/21 12:17:57;;;;;;;3.80;1.40;;;;;;;24.33;34.37;101446.97;5015106;28;20038;-73
2022/06/21 12:20:40;;;;;;;5.68;1.63;;;;;;;25.07;32.88;101442.19;5033129;28;20384;-74